Latest Coastal Weather Observations for Edithburgh

IDS60701

Issued at 9:55 pm CST Saturday 19 April 2014 (issued every 10 minutes, with the page automatically refreshed every 10 minutes)

About coastal observations | Map of coastal stations | Coastal observations for SA | Marine services | Other Formats
Station Details ID: 022046 Name: EDITHBURGH Lat: -35.11 Lon: 137.74 Height: 6.0 m
Data from the previous 72 hours. | See also: Recent months at Edithburgh
Date/Time
CST
Temp

°C
Wind Pressure Rain
since 9am
mm
Weather Cloud Vis
km
Sea
Height
m
Swell
Dir
 
Speed
knots
Gust
knots
hPa Trend Height
m
Period
s
Dir
19/09:30pm 14.7 SW 2 3 1018.3 - 0.0 - - - - - - -
19/09:00pm 14.4 SSW 2 3 1018.4 - 0.0 - - - - - - -
19/08:30pm 14.8 WSW 4 6 1018.3 - 0.0 - - - - - - -
19/08:00pm 16.2 NE 4 6 1018.2 - 0.0 - - - - - - -
19/07:30pm 15.5 ENE 5 7 1018.1 - 0.0 - - - - - - -
19/07:00pm 14.9 ENE 2 3 1018.4 - 0.0 - - - - - - -
19/06:30pm 15.2 ENE 2 3 1018.5 - 0.0 - - - - - - -
19/06:00pm 15.5 NE 2 3 1018.5 - 0.0 - - - - - - -
19/05:30pm 15.7 E 2 3 1018.7 - 0.0 - - - - - - -
19/05:00pm 15.9 E 3 5 1018.7 - 0.0 - - - - - - -
19/04:30pm 15.9 ENE 5 7 1018.7 - 0.0 - - - - - - -
19/04:00pm 16.1 E 4 6 1019.0 - 0.0 - - - - - - -
19/03:30pm 16.0 ENE 6 8 1019.1 - 0.0 - - - - - - -
19/03:00pm 16.5 E 6 8 1019.2 - 0.0 - - - - - - -
19/02:30pm 16.4 ESE 5 7 1019.3 - 0.0 - - - - - - -
19/02:00pm 16.0 SE 6 8 1019.6 - 0.0 - - - - - - -
19/01:30pm 15.6 SSE 6 8 1020.0 - 0.0 - - - - - - -
19/01:00pm 14.4 S 5 7 1020.7 - 0.0 - - - - - - -
19/12:30pm 14.4 W 7 9 1021.3 - 0.0 - - - - - - -
19/12:00pm 15.6 W 6 10 1021.8 - 0.0 - - - - - - -
19/11:30am 15.8 WSW 4 7 1022.0 - 0.0 - - - - - - -
19/11:00am 16.3 N 6 8 1022.2 - 0.0 - - - - - - -
19/10:30am 16.2 N 6 9 1022.3 - 0.0 - - - - - - -
19/10:00am 15.8 NNW 6 7 1022.7 - 0.0 - - - - - - -
19/09:30am 15.4 N 6 9 1022.9 - 0.0 - - - - - - -
19/09:00am 14.2 N 3 5 1023.0 - 0.2 - - - - - - -
19/08:30am 14.4 N 4 6 1023.0 - 0.2 - - - - - - -
19/08:00am 15.4 NE 4 6 1022.7 - 0.2 - - - - - - -
19/07:30am 15.4 SE 4 6 1022.3 - 0.2 - - - - - - -
19/07:00am 15.0 ESE 4 6 1022.3 - 0.2 - - - - - - -
19/06:30am 14.9 E 3 5 1022.1 - 0.2 - - - - - - -
19/06:00am 14.9 CALM 0 0 1022.1 - 0.2 - - - - - - -
19/05:30am 15.0 E 4 7 1021.9 - 0.2 - - - - - - -
19/05:00am 15.4 SSE 4 5 1022.1 - 0.2 - - - - - - -
19/04:30am 15.2 SE 2 4 1021.9 - 0.2 - - - - - - -
19/04:00am 15.4 E 6 9 1021.9 - 0.2 - - - - - - -
19/03:30am 15.2 SE 5 8 1021.8 - 0.2 - - - - - - -
19/03:00am 15.2 SSE 5 8 1021.9 - 0.2 - - - - - - -
19/02:30am 15.1 S 5 7 1022.1 - 0.2 - - - - - - -
19/02:00am 15.1 SSE 5 7 1022.5 - 0.2 - - - - - - -
19/01:30am 15.0 S 5 7 1022.7 - 0.2 - - - - - - -
19/01:00am 15.1 S 8 11 1023.0 - 0.2 - - - - - - -
19/12:30am 13.5 SSW 5 6 1023.0 - 0.2 - - - - - - -
19/12:00am 13.7 S 4 7 1023.1 - 0.2 - - - - - - -
 
Date/Time
CST
Temp

°C
Wind Pressure Rain
since 9am
mm
Weather Cloud Vis
km
Sea
Height
m
Swell
Dir
 
Speed
knots
Gust
knots
hPa Trend Height
m
Period
s
Dir
18/11:30pm 14.5 SSE 5 7 1023.2 - 0.2 - - - - - - -
18/11:00pm 14.8 SSE 6 9 1023.4 - 0.2 - - - - - - -
18/10:30pm 15.2 SSE 7 10 1023.4 - 0.2 - - - - - - -
18/10:00pm 15.0 SSE 6 9 1023.7 - 0.2 - - - - - - -
18/09:30pm 15.3 SSE 8 10 1023.6 - 0.2 - - - - - - -
18/09:00pm 14.9 SSE 7 9 1023.6 - 0.2 - - - - - - -
18/08:30pm 15.0 SSE 8 12 1023.5 - 0.2 - - - - - - -
18/08:00pm 15.3 SSE 9 12 1023.4 - 0.2 - - - - - - -
18/07:30pm 15.4 SSE 9 12 1023.3 - 0.2 - - - - - - -
18/07:00pm 15.6 S 9 14 1023.2 - 0.2 - - - - - - -
18/06:30pm 15.6 S 9 12 1022.9 - 0.2 - - - - - - -
18/06:00pm 15.9 SSE 10 14 1022.9 - 0.2 - - - - - - -
18/05:30pm 16.4 SSE 11 14 1022.7 - 0.2 - - - - - - -
18/05:00pm 16.9 SSE 12 16 1022.7 - 0.2 - - - - - - -
18/04:30pm 17.2 SSE 11 14 1022.5 - 0.2 - - - - - - -
18/04:00pm 18.0 SSE 12 15 1022.5 - 0.2 - - - - - - -
18/03:30pm 18.1 SSE 11 15 1022.3 - 0.2 - - - - - - -
18/03:00pm 18.1 SSE 11 14 1022.3 - 0.2 - - - - - - -
18/02:30pm 18.7 SSE 11 14 1022.2 - 0.2 - - - - - - -
18/02:00pm 19.1 SSE 10 13 1022.2 - 0.2 - - - - - - -
18/01:30pm 19.2 S 11 13 1022.1 - 0.2 - - - - - - -
18/01:00pm 19.1 S 9 14 1022.4 - 0.2 - - - - - - -
18/12:30pm 19.0 S 10 14 1022.4 - 0.2 - - - - - - -
18/12:00pm 19.5 S 11 16 1022.6 - 0.2 - - - - - - -
18/11:30am 19.3 S 9 12 1022.7 - 0.2 - - - - - - -
18/11:00am 19.1 S 11 15 1022.7 - 0.2 - - - - - - -
18/10:30am 18.6 SSW 13 16 1022.7 - 0.2 - - - - - - -
18/10:00am 18.6 SSW 12 17 1022.7 - 0.0 - - - - - - -
18/09:30am 17.9 S 15 18 1022.5 - 0.0 - - - - - - -
18/09:00am 17.8 SSW 14 19 1022.1 - 0.0 - - - - - - -
18/08:30am 17.9 SSW 13 18 1021.8 - 0.0 - - - - - - -
18/08:00am 17.0 SSW 15 20 1021.4 - 0.0 - - - - - - -
18/07:30am 16.4 SSW 14 18 1020.8 - 0.0 - - - - - - -
18/07:00am 16.1 SSW 14 18 1020.4 - 0.0 - - - - - - -
18/06:30am 16.3 WSW 11 15 1019.8 - 0.0 - - - - - - -
18/06:00am 15.6 WNW 9 12 1019.2 - 0.0 - - - - - - -
18/05:30am 14.3 WNW 5 6 1019.3 - 0.0 - - - - - - -
18/05:00am 14.1 WNW 6 8 1019.2 - 0.0 - - - - - - -
18/04:30am 13.8 WNW 7 9 1019.3 - 0.0 - - - - - - -
18/04:00am 14.0 WNW 7 9 1019.2 - 0.0 - - - - - - -
18/03:30am 12.9 WNW 6 8 1019.1 - 0.0 - - - - - - -
18/03:00am 13.4 WNW 7 9 1019.2 - 0.0 - - - - - - -
18/02:30am 13.7 WNW 8 10 1019.2 - 0.0 - - - - - - -
18/02:00am 13.7 WNW 8 9 1019.4 - 0.0 - - - - - - -
18/01:30am 13.5 WNW 7 9 1019.3 - 0.0 - - - - - - -
18/01:00am 14.0 WNW 7 8 1019.2 - 0.0 - - - - - - -
18/12:30am 14.6 W 9 11 1019.2 - 0.0 - - - - - - -
18/12:00am 14.8 WNW 8 10 1019.2 - 0.0 - - - - - - -
 
Date/Time
CST
Temp

°C
Wind Pressure Rain
since 9am
mm
Weather Cloud Vis
km
Sea
Height
m
Swell
Dir
 
Speed
knots
Gust
knots
hPa Trend Height
m
Period
s
Dir
17/11:30pm 14.5 WNW 7 8 1019.2 - 0.0 - - - - - - -
17/11:00pm 14.9 WNW 7 8 1019.4 - 0.0 - - - - - - -
17/10:30pm 13.5 NW 6 7 1019.6 - 0.0 - - - - - - -
17/10:00pm 14.3 WNW 6 7 1019.9 - 0.0 - - - - - - -
17/09:30pm 14.7 WNW 6 7 1019.9 - 0.0 - - - - - - -
17/09:00pm 14.5 WNW 7 8 1019.8 - 0.0 - - - - - - -
17/08:30pm 15.4 WNW 7 9 1019.6 - 0.0 - - - - - - -
17/08:00pm 16.1 WNW 8 9 1019.3 - 0.0 - - - - - - -
17/07:30pm 14.7 NW 5 6 1018.9 - 0.0 - - - - - - -
17/07:00pm 15.4 NNW 3 3 1018.7 - 0.0 - - - - - - -
17/06:30pm 17.8 N 2 4 1018.6 - 0.0 - - - - - - -
17/06:00pm 18.2 NE 4 5 1018.5 - 0.0 - - - - - - -
17/05:30pm 18.6 NE 4 6 1018.5 - 0.0 - - - - - - -
17/05:00pm 19.0 ENE 5 6 1018.5 - 0.0 - - - - - - -
17/04:30pm 19.2 ENE 6 8 1018.6 - 0.0 - - - - - - -
17/04:00pm 19.5 ENE 6 8 1018.8 - 0.0 - - - - - - -
17/03:30pm 19.6 ENE 6 8 1019.1 - 0.0 - - - - - - -
17/03:00pm 19.8 NE 7 9 1019.2 - 0.0 - - - - - - -
17/02:30pm 20.4 ENE 7 9 1019.4 - 0.0 - - - - - - -
17/02:00pm 20.2 ENE 8 10 1019.5 - 0.0 - - - - - - -
17/01:30pm 19.8 ENE 6 9 1019.9 - 0.0 - - - - - - -
17/01:00pm 20.5 ENE 6 9 1020.2 - 0.0 - - - - - - -
17/12:30pm 19.7 ESE 6 9 1020.5 - 0.0 - - - - - - -
17/12:00pm 19.5 SE 6 7 1021.1 - 0.0 - - - - - - -
17/11:30am 19.9 SE 7 9 1021.3 - 0.0 - - - - - - -
17/11:00am 20.8 ENE 7 8 1021.5 - 0.0 - - - - - - -
17/10:30am 19.3 NE 6 7 1021.4 - 0.0 - - - - - - -
17/10:00am 19.9 NE 6 8 1021.5 - 0.0 - - - - - - -
17/09:30am 18.8 NNW 5 7 1021.4 - 0.0 - - - - - - -
17/09:00am 17.7 NNW 4 6 1021.3 - 0.0 - - - - - - -
17/08:30am 16.6 NNW 3 5 1021.1 - 0.0 - - - - - - -
17/08:00am 14.9 NW 3 4 1021.2 - 0.0 - - - - - - -
17/07:30am 13.0 NNW 5 5 1020.7 - 0.0 - - - - - - -
17/07:00am 11.9 NNW 5 5 1020.4 - 0.0 - - - - - - -
17/06:30am 12.1 NNW 4 5 1020.3 - 0.0 - - - - - - -
17/06:00am 11.3 NNW 4 5 1020.2 - 0.0 - - - - - - -
17/05:30am 11.8 NNW 4 5 1020.1 - 0.0 - - - - - - -
17/05:00am 12.5 NW 3 6 1020.1 - 0.0 - - - - - - -
17/04:30am 13.2 WNW 6 8 1019.9 - 0.0 - - - - - - -
17/04:00am 13.3 WNW 7 9 1019.7 - 0.0 - - - - - - -
17/03:30am 13.2 WNW 6 8 1019.6 - 0.0 - - - - - - -
17/03:00am 12.0 WNW 3 5 1019.6 - 0.0 - - - - - - -
17/02:30am 12.2 NW 4 6 1019.8 - 0.0 - - - - - - -
17/02:00am 13.4 WNW 5 7 1020.2 - 0.0 - - - - - - -
17/01:30am 12.9 NW 4 5 1020.2 - 0.0 - - - - - - -
17/01:00am 14.0 NW 6 8 1020.2 - 0.0 - - - - - - -
17/12:30am 13.9 WNW 6 8 1020.1 - 0.0 - - - - - - -
17/12:00am 12.0 NW 5 6 1020.3 - 0.0 - - - - - - -
 
Date/Time
CST
Temp

°C
Wind Pressure Rain
since 9am
mm
Weather Cloud Vis
km
Sea
Height
m
Swell
Dir
 
Speed
knots
Gust
knots
hPa Trend Height
m
Period
s
Dir
16/11:30pm 11.1 NNW 6 7 1020.3 - 0.0 - - - - - - -
16/11:00pm 10.7 NNW 6 6 1020.7 - 0.0 - - - - - - -
16/10:30pm 11.7 NW 5 5 1020.6 - 0.0 - - - - - - -
16/10:00pm 11.8 NW 5 5 1020.6 - 0.0 - - - - - - -

Other Formats:

Comma delimited format used in spreadsheet applications
http://www.bom.gov.au/fwo/IDS60701/IDS60701.94809.axf

JavaScript Object Notation format (JSON) in row-major order
http://www.bom.gov.au/fwo/IDS60701/IDS60701.94809.json